createdAt,value
2023-01-05T00:01:40.151Z,97928.34
2023-01-05T00:04:08.901Z,97923.56
2023-01-05T00:06:39.771Z,97925.69
2023-01-05T00:09:09.463Z,97935.16
2023-01-05T00:11:54.991Z,97932.34
2023-01-05T00:14:44.881Z,97934.03
2023-01-05T00:17:32.490Z,97946.94
2023-01-05T00:20:18.963Z,97946.63
2023-01-05T00:22:49.848Z,97935.00
2023-01-05T00:25:20.953Z,97942.53
2023-01-05T00:27:51.725Z,97938.72
2023-01-05T00:30:23.838Z,97938.72
2023-01-05T00:32:52.148Z,97937.63
2023-01-05T00:35:21.522Z,97898.72
2023-01-05T00:37:50.453Z,97909.19
2023-01-05T00:40:21.664Z,97915.34
2023-01-05T00:42:50.315Z,97909.50
2023-01-05T00:45:22.071Z,97908.84
2023-01-05T00:47:51.955Z,97911.50
2023-01-05T00:50:21.559Z,97907.00
2023-01-05T00:52:50.265Z,97909.13
2023-01-05T00:55:18.656Z,97903.66
2023-01-05T00:57:47.065Z,97900.47
2023-01-05T01:00:19.585Z,97900.63
2023-01-05T01:02:52.797Z,97894.50
2023-01-05T01:05:21.357Z,97900.63
2023-01-05T01:07:49.847Z,97903.28
2023-01-05T01:10:18.281Z,97898.09
2023-01-05T01:12:46.592Z,97884.00
2023-01-05T01:15:14.870Z,97894.50
2023-01-05T01:17:43.149Z,97883.84
2023-01-05T01:20:13.262Z,97885.50
2023-01-05T01:22:41.498Z,97879.50
2023-01-05T01:25:10.730Z,97878.41
2023-01-05T01:27:39.007Z,97875.72
2023-01-05T01:30:09.620Z,97877.25
2023-01-05T01:32:37.882Z,97873.59
2023-01-05T01:35:08.496Z,97866.16
2023-01-05T01:37:38.063Z,97860.31
2023-01-05T01:40:07.983Z,97855.97
2023-01-05T01:42:36.224Z,97860.31
2023-01-05T01:45:20.202Z,97858.63
2023-01-05T01:47:54.364Z,97854.31
2023-01-05T01:50:27.861Z,97850.81
2023-01-05T01:53:04.589Z,97858.09
2023-01-05T01:55:33.823Z,97835.47
2023-01-05T01:58:04.685Z,97832.72
2023-01-05T02:00:32.947Z,97830.94
2023-01-05T02:03:01.203Z,97822.88
2023-01-05T02:05:32.333Z,97812.25
2023-01-05T02:08:02.391Z,97817.69
2023-01-05T02:10:59.286Z,97817.34
2023-01-05T02:14:00.833Z,97814.13
2023-01-05T02:16:40.237Z,97810.94
2023-01-05T02:19:57.281Z,97803.41
2023-01-05T02:23:08.573Z,97792.28
2023-01-05T02:26:26.623Z,97773.31
2023-01-05T02:29:32.309Z,97779.59
2023-01-05T02:32:09.905Z,97757.81
2023-01-05T02:34:45.164Z,97753.22
2023-01-05T02:37:20.111Z,97751.41
2023-01-05T02:39:54.260Z,97751.00
2023-01-05T02:42:26.075Z,97750.31
2023-01-05T02:44:54.766Z,97744.69
2023-01-05T02:47:41.565Z,97741.84
2023-01-05T02:50:16.248Z,97744.47
2023-01-05T02:52:54.598Z,97746.44
2023-01-05T02:55:30.809Z,97739.19
2023-01-05T02:58:04.331Z,97739.19
2023-01-05T03:00:40.264Z,97743.94
2023-01-05T03:03:16.743Z,97735.53
2023-01-05T03:05:50.674Z,97731.72
2023-01-05T03:08:29.092Z,97731.72
2023-01-05T03:11:22.479Z,97733.25
2023-01-05T03:13:57.211Z,97742.03
2023-01-05T03:16:30.900Z,97754.88
2023-01-05T03:19:21.408Z,97744.09
2023-01-05T03:22:08.934Z,97740.31
2023-01-05T03:24:56.288Z,97727.56
2023-01-05T03:27:43.224Z,97730.91
2023-01-05T03:30:31.326Z,97741.69
2023-01-05T03:33:25.819Z,97737.19
2023-01-05T03:35:59.223Z,97740.53
2023-01-05T03:38:32.913Z,97735.91
2023-01-05T03:41:04.310Z,97742.13
2023-01-05T03:43:35.841Z,97731.19
2023-01-05T03:46:12.751Z,97725.19
2023-01-05T03:48:41.271Z,97730.59
2023-01-05T03:51:10.908Z,97709.03
2023-01-05T03:53:39.157Z,97713.88
2023-01-05T03:56:08.274Z,97708.25
2023-01-05T03:58:36.581Z,97706.06
2023-01-05T04:01:05.600Z,97725.84
2023-01-05T04:03:34.774Z,97720.09
2023-01-05T04:06:03.120Z,97723.13
2023-01-05T04:08:32.816Z,97712.19
2023-01-05T04:11:13.389Z,97713.84
2023-01-05T04:13:41.800Z,97722.97
2023-01-05T04:16:10.676Z,97705.56
2023-01-05T04:18:39.071Z,97711.41
2023-01-05T04:21:08.011Z,97703.94
2023-01-05T04:23:37.903Z,97695.81
2023-01-05T04:26:06.683Z,97703.63
2023-01-05T04:28:35.059Z,97703.47
2023-01-05T04:31:03.390Z,97706.81
2023-01-05T04:33:31.702Z,97692.69
2023-01-05T04:35:59.955Z,97683.88
2023-01-05T04:38:28.184Z,97692.38
2023-01-05T04:40:57.838Z,97685.88
2023-01-05T04:43:26.170Z,97691.03
2023-01-05T04:45:54.406Z,97694.53
2023-01-05T04:48:22.836Z,97675.91
2023-01-05T04:50:54.999Z,97679.22
2023-01-05T04:53:23.831Z,97669.44
2023-01-05T04:55:52.238Z,97672.41
2023-01-05T04:58:21.923Z,97669.75
2023-01-05T05:00:51.143Z,97678.25
2023-01-05T05:03:19.661Z,97693.22
2023-01-05T05:05:47.957Z,97687.91
2023-01-05T05:08:16.255Z,97684.38
2023-01-05T05:10:44.547Z,97695.72
2023-01-05T05:13:12.905Z,97685.09
2023-01-05T05:15:42.572Z,97680.91
2023-01-05T05:18:10.827Z,97673.09
2023-01-05T05:20:42.769Z,97682.56
2023-01-05T05:23:11.532Z,97689.72
2023-01-05T05:25:39.860Z,97699.38
2023-01-05T05:28:08.141Z,97695.03
2023-01-05T05:30:36.540Z,97692.22
2023-01-05T05:33:06.194Z,97694.22
2023-01-05T05:35:34.531Z,97714.31
2023-01-05T05:38:02.837Z,97713.63
2023-01-05T05:40:31.075Z,97711.81
2023-01-05T05:42:59.441Z,97713.47
2023-01-05T05:45:27.748Z,97729.41
2023-01-05T05:47:56.047Z,97735.44
2023-01-05T05:50:25.865Z,97728.31
2023-01-05T05:52:54.153Z,97728.31
2023-01-05T05:55:22.417Z,97726.75
2023-01-05T05:57:50.679Z,97734.09
2023-01-05T06:00:19.579Z,97739.72
2023-01-05T06:02:47.954Z,97753.19
2023-01-05T06:05:16.552Z,97751.22
2023-01-05T06:07:46.191Z,97752.38
2023-01-05T06:10:14.407Z,97748.72
2023-01-05T06:12:42.731Z,97745.38
2023-01-05T06:15:12.256Z,97751.38
2023-01-05T06:17:40.544Z,97756.69
2023-01-05T06:20:10.658Z,97758.81
2023-01-05T06:22:39.284Z,97749.34
2023-01-05T06:25:10.457Z,97766.94
2023-01-05T06:27:38.777Z,97762.16
2023-01-05T06:30:08.907Z,97751.38
2023-01-05T06:32:37.242Z,97759.81
2023-01-05T06:35:06.291Z,97766.78
2023-01-05T06:37:34.576Z,97762.00
2023-01-05T06:40:02.866Z,97762.69
2023-01-05T06:42:33.184Z,97779.28
2023-01-05T06:45:01.621Z,97768.41
2023-01-05T06:47:29.904Z,97781.84
2023-01-05T06:49:58.260Z,97784.50
2023-01-05T06:52:26.635Z,97797.03
2023-01-05T06:54:54.962Z,97799.53
2023-01-05T06:57:23.449Z,97802.03
2023-01-05T06:59:53.056Z,97798.84
2023-01-05T07:02:21.469Z,97786.41
2023-01-05T07:04:49.778Z,97794.69
2023-01-05T07:07:18.099Z,97778.81
2023-01-05T07:09:49.287Z,97791.78
2023-01-05T07:12:17.851Z,97806.91
2023-01-05T07:14:46.160Z,97800.97
2023-01-05T07:17:15.822Z,97814.94
2023-01-05T07:19:44.249Z,97815.25
2023-01-05T07:22:12.591Z,97815.44
2023-01-05T07:24:41.259Z,97818.13
2023-01-05T07:27:10.061Z,97815.59
2023-01-05T07:29:38.867Z,97815.44
2023-01-05T07:32:07.297Z,97817.69
2023-01-05T07:34:37.262Z,97824.34
2023-01-05T07:37:05.588Z,97828.38
2023-01-05T07:39:34.130Z,97829.03
2023-01-05T07:42:02.486Z,97830.59
2023-01-05T07:44:30.747Z,97835.75
2023-01-05T07:46:59.596Z,97840.91
2023-01-05T07:49:28.250Z,97846.22
2023-01-05T07:51:57.904Z,97846.88
2023-01-05T07:54:27.561Z,97844.38
2023-01-05T07:56:55.898Z,97853.38
2023-01-05T07:59:24.257Z,97847.88
2023-01-05T08:01:52.577Z,97854.06
2023-01-05T08:04:21.102Z,97882.31
2023-01-05T08:06:49.448Z,97878.31
2023-01-05T08:09:36.582Z,97878.59
2023-01-05T08:12:05.189Z,97888.88
2023-01-05T08:14:33.588Z,97884.38
2023-01-05T08:17:01.942Z,97882.84
2023-01-05T08:19:30.263Z,97885.66
2023-01-05T08:21:58.575Z,97890.69
2023-01-05T08:24:28.252Z,97891.31
2023-01-05T08:26:56.669Z,97901.31
2023-01-05T08:29:24.953Z,97909.28
2023-01-05T08:31:53.229Z,97906.34
2023-01-05T08:34:21.522Z,97916.97
2023-01-05T08:36:49.847Z,97921.47
2023-01-05T08:39:18.080Z,97922.28
2023-01-05T08:41:48.473Z,97932.13
2023-01-05T08:44:16.864Z,97930.88
2023-01-05T08:46:45.100Z,97940.09
2023-01-05T08:49:13.368Z,97952.53
2023-01-05T08:51:41.637Z,97953.38
2023-01-05T08:54:09.947Z,97956.13
2023-01-05T08:56:39.336Z,97958.00
2023-01-05T08:59:12.860Z,97964.47
2023-01-05T09:01:41.407Z,97963.19
2023-01-05T09:04:09.859Z,97963.34
2023-01-05T09:06:38.161Z,97967.66
2023-01-05T09:09:06.592Z,97971.47
2023-01-05T09:11:35.394Z,97980.00
2023-01-05T09:14:04.333Z,97990.78
2023-01-05T09:17:05.893Z,97976.09
2023-01-05T09:19:24.450Z,98006.63
2023-01-05T09:21:53.599Z,97999.38
2023-01-05T09:24:21.973Z,98011.56
2023-01-05T09:26:50.329Z,98007.16
2023-01-05T09:29:18.847Z,98009.81
2023-01-05T09:31:48.531Z,98002.28
2023-01-05T09:34:19.052Z,98003.63
2023-01-05T09:36:47.646Z,98025.75
2023-01-05T09:39:16.003Z,98011.47
2023-01-05T09:41:47.737Z,98023.09
2023-01-05T09:44:27.963Z,98024.59
2023-01-05T09:47:03.022Z,98018.16
2023-01-05T09:49:33.757Z,98019.00
2023-01-05T09:52:09.088Z,98013.56
2023-01-05T09:54:39.165Z,98035.28
2023-01-05T09:57:15.767Z,98033.22
2023-01-05T09:59:47.395Z,98037.66
2023-01-05T10:02:32.324Z,98044.38
2023-01-05T10:05:02.926Z,98044.81
2023-01-05T10:07:41.681Z,98042.66
2023-01-05T10:10:30.534Z,98041.41
2023-01-05T10:13:03.436Z,98042.06
2023-01-05T10:15:40.343Z,98047.41
2023-01-05T10:18:16.151Z,98046.88
2023-01-05T10:21:01.965Z,98035.25
2023-01-05T10:23:51.566Z,98049.69
2023-01-05T10:26:26.303Z,98038.66
2023-01-05T10:29:02.469Z,98031.06
2023-01-05T10:31:46.997Z,98016.69
2023-01-05T10:34:24.081Z,98014.28
2023-01-05T10:37:11.730Z,98022.09
2023-01-05T10:40:14.147Z,98021.09
2023-01-05T10:42:59.241Z,98027.13
2023-01-05T10:45:31.289Z,98023.91
2023-01-05T10:48:00.915Z,98025.06
2023-01-05T10:50:40.504Z,98038.19
2023-01-05T10:53:14.168Z,98017.97
2023-01-05T10:55:56.620Z,98019.94
2023-01-05T10:58:27.306Z,98020.22
2023-01-05T11:00:59.594Z,98021.66
2023-01-05T11:04:14.936Z,98016.50
2023-01-05T11:06:30.851Z,98014.84
2023-01-05T11:09:21.800Z,98019.25
2023-01-05T11:11:57.170Z,98033.22
2023-01-05T11:14:26.388Z,98030.66
2023-01-05T11:17:01.485Z,98010.00
2023-01-05T11:19:33.872Z,98024.22
2023-01-05T11:22:03.876Z,98023.09
2023-01-05T11:24:34.136Z,98026.72
2023-01-05T11:27:05.677Z,98033.03
2023-01-05T11:29:34.340Z,98034.25
2023-01-05T11:32:05.257Z,98021.09
2023-01-05T11:34:42.114Z,98025.16
2023-01-05T11:37:25.451Z,98023.88
2023-01-05T11:39:56.710Z,98020.34
2023-01-05T11:42:32.392Z,98018.38
2023-01-05T11:45:03.757Z,98021.19
2023-01-05T11:47:43.897Z,98018.53
2023-01-05T11:50:25.052Z,98022.59
2023-01-05T11:52:56.510Z,98016.16
2023-01-05T11:55:35.896Z,98022.44
2023-01-05T11:58:25.781Z,98015.97
2023-01-05T12:01:41.334Z,98022.88
2023-01-05T12:04:33.461Z,98024.56
2023-01-05T12:07:18.454Z,98014.22
2023-01-05T12:09:55.368Z,98022.59
2023-01-05T12:12:40.434Z,98017.97
2023-01-05T12:15:41.432Z,98017.69
2023-01-05T12:18:42.144Z,98016.53
2023-01-05T12:21:21.066Z,98017.69
2023-01-05T12:24:24.630Z,98025.34
2023-01-05T12:27:10.838Z,98017.38
2023-01-05T12:32:19.677Z,98013.03
2023-01-05T12:36:40.062Z,98017.53
2023-01-05T12:39:32.110Z,98011.91
2023-01-05T12:42:20.339Z,98013.03
2023-01-05T12:45:04.646Z,98011.75
2023-01-05T12:47:55.941Z,98021.41
2023-01-05T12:50:31.925Z,98020.41
2023-01-05T12:53:12.650Z,98014.41
2023-01-05T12:55:44.844Z,98012.88
2023-01-05T12:58:24.055Z,98013.41
2023-01-05T13:00:53.305Z,98012.72
2023-01-05T13:03:26.590Z,98008.41
2023-01-05T13:06:02.642Z,98005.59
2023-01-05T13:08:39.540Z,98019.88
2023-01-05T13:11:17.678Z,98014.72
2023-01-05T13:13:51.484Z,98021.00
2023-01-05T13:16:24.851Z,98013.91
2023-01-05T13:18:59.335Z,98023.97
2023-01-05T13:21:29.393Z,98023.00
2023-01-05T13:24:03.567Z,98027.53
2023-01-05T13:26:37.858Z,98028.19
2023-01-05T13:29:08.075Z,98033.13
2023-01-05T13:32:07.038Z,98030.22
2023-01-05T13:35:01.984Z,98032.63
2023-01-05T13:38:23.249Z,98037.56
2023-01-05T13:41:10.883Z,98028.50
2023-01-05T13:44:36.334Z,98043.47
2023-01-05T13:47:27.309Z,98059.16
2023-01-05T13:50:24.225Z,98057.81
2023-01-05T13:53:13.487Z,98065.91
2023-01-05T13:55:49.552Z,98068.56
2023-01-05T13:58:39.761Z,98062.56
2023-01-05T14:01:14.426Z,98064.53
2023-01-05T14:06:27.905Z,98067.66
2023-01-05T14:09:01.478Z,98068.09
2023-01-05T14:11:30.823Z,98080.38
2023-01-05T14:14:04.895Z,98090.28
2023-01-05T14:16:57.254Z,98100.09
2023-01-05T14:19:53.354Z,98088.91
2023-01-05T14:22:38.599Z,98087.84
2023-01-05T14:25:50.081Z,98098.16
2023-01-05T14:28:40.810Z,98100.69
2023-01-05T14:31:45.952Z,98089.63
2023-01-05T14:34:20.894Z,98088.38
2023-01-05T14:37:03.670Z,98092.56
2023-01-05T14:39:41.890Z,98091.03
2023-01-05T14:42:26.693Z,98105.84
2023-01-05T14:45:01.947Z,98105.72
2023-01-05T14:47:42.295Z,98117.16
2023-01-05T14:50:35.433Z,98115.19
2023-01-05T14:53:12.872Z,98119.53
2023-01-05T14:55:43.381Z,98113.25
2023-01-05T14:58:41.994Z,98118.41
2023-01-05T15:01:22.799Z,98114.78
2023-01-05T15:03:56.690Z,98116.56
2023-01-05T15:06:36.743Z,98119.22
2023-01-05T15:09:38.267Z,98115.91
2023-01-05T15:12:45.079Z,98117.72
2023-01-05T15:15:37.508Z,98129.47
2023-01-05T15:18:40.394Z,98127.78
2023-01-05T15:21:47.768Z,98138.56
2023-01-05T15:25:09.005Z,98142.06
2023-01-05T15:27:57.331Z,98139.41
2023-01-05T15:30:54.421Z,98146.38
2023-01-05T15:33:38.371Z,98150.88
2023-01-05T15:36:11.399Z,98157.00
2023-01-05T15:38:48.300Z,98152.97
2023-01-05T15:41:21.384Z,98162.47
2023-01-05T15:43:51.048Z,98157.16
2023-01-05T15:46:22.317Z,98148.66
2023-01-05T15:48:54.654Z,98150.75
2023-01-05T15:51:25.485Z,98152.69
2023-01-05T15:53:59.800Z,98158.28
2023-01-05T15:56:33.180Z,98166.81
2023-01-05T15:59:03.249Z,98147.84
2023-01-05T16:01:31.549Z,98146.72
2023-01-05T16:04:09.375Z,98144.19
2023-01-05T16:06:39.800Z,98157.34
2023-01-05T16:09:26.667Z,98162.50
2023-01-05T16:11:59.700Z,98163.34
2023-01-05T16:14:32.331Z,98171.31
2023-01-05T16:17:07.517Z,98169.22
2023-01-05T16:19:42.510Z,98170.88
2023-01-05T16:22:16.786Z,98174.13
2023-01-05T16:24:55.332Z,98183.03
2023-01-05T16:27:23.835Z,98181.50
2023-01-05T16:29:52.634Z,98188.22
2023-01-05T16:32:33.889Z,98184.31
2023-01-05T16:35:30.224Z,98193.28
2023-01-05T16:38:24.050Z,98193.41
2023-01-05T16:41:15.432Z,98199.00
2023-01-05T16:43:49.870Z,98191.75
2023-01-05T16:46:40.713Z,98198.72
2023-01-05T16:49:38.935Z,98204.16
2023-01-05T16:55:28.186Z,98205.16
2023-01-05T16:57:59.624Z,98210.34
2023-01-05T17:00:38.274Z,98218.13
2023-01-05T17:03:30.400Z,98217.03
2023-01-05T17:06:00.161Z,98208.34
2023-01-05T17:08:31.790Z,98216.31
2023-01-05T17:11:02.970Z,98211.00
2023-01-05T17:13:38.450Z,98215.66
2023-01-05T17:16:08.032Z,98223.44
2023-01-05T17:18:36.338Z,98225.00
2023-01-05T17:21:06.330Z,98221.91
2023-01-05T17:23:38.523Z,98229.19
2023-01-05T17:26:10.159Z,98236.03
2023-01-05T17:28:42.175Z,98239.69
2023-01-05T17:31:11.568Z,98236.19
2023-01-05T17:33:40.637Z,98237.16
2023-01-05T17:36:09.476Z,98232.94
2023-01-05T17:38:37.977Z,98231.00
2023-01-05T17:41:06.684Z,98230.16
2023-01-05T17:43:34.986Z,98231.16
2023-01-05T17:46:05.064Z,98243.84
2023-01-05T17:48:33.481Z,98247.78
2023-01-05T17:51:01.782Z,98237.28
2023-01-05T17:53:30.128Z,98246.25
2023-01-05T17:55:58.408Z,98248.03
2023-01-05T17:58:27.381Z,98248.19
2023-01-05T18:00:55.930Z,98252.09
2023-01-05T18:03:25.642Z,98248.72
2023-01-05T18:05:54.940Z,98244.66
2023-01-05T18:08:23.654Z,98250.38
2023-01-05T18:10:51.926Z,98246.28
2023-01-05T18:13:22.624Z,98245.75
2023-01-05T18:15:53.104Z,98236.22
2023-01-05T18:18:22.393Z,98244.19
2023-01-05T18:20:52.869Z,98235.69
2023-01-05T18:23:24.367Z,98235.81
2023-01-05T18:25:52.701Z,98237.88
2023-01-05T18:28:20.998Z,98238.16
2023-01-05T18:30:49.380Z,98242.91
2023-01-05T18:33:17.677Z,98254.63
2023-01-05T18:35:45.923Z,98244.28
2023-01-05T18:38:15.571Z,98251.56
2023-01-05T18:40:50.014Z,98256.16
2023-01-05T18:43:18.546Z,98255.56
2023-01-05T18:45:46.767Z,98253.31
2023-01-05T18:48:14.991Z,98266.28
2023-01-05T18:50:49.902Z,98252.44
2023-01-05T18:53:20.702Z,98243.78
2023-01-05T18:55:49.570Z,98256.22
2023-01-05T18:58:17.980Z,98248.78
2023-01-05T19:00:47.441Z,98248.22
2023-01-05T19:03:15.759Z,98256.16
2023-01-05T19:05:45.619Z,98254.50
2023-01-05T19:08:15.233Z,98252.13
2023-01-05T19:10:44.996Z,98251.53
2023-01-05T19:13:13.323Z,98252.50
2023-01-05T19:15:41.840Z,98250.25
2023-01-05T19:18:10.384Z,98258.34
2023-01-05T19:20:38.790Z,98267.53
2023-01-05T19:23:07.056Z,98262.38
2023-01-05T19:25:35.490Z,98263.31
2023-01-05T19:28:05.153Z,98259.97
2023-01-05T19:30:33.479Z,98264.56
2023-01-05T19:33:02.327Z,98264.69
2023-01-05T19:35:32.953Z,98270.13
2023-01-05T19:38:02.534Z,98265.94
2023-01-05T19:40:36.832Z,98266.06
2023-01-05T19:43:07.570Z,98271.50
2023-01-05T19:45:35.919Z,98269.78
2023-01-05T19:48:07.055Z,98278.00
2023-01-05T19:50:35.349Z,98272.84
2023-01-05T19:53:03.697Z,98266.84
2023-01-05T19:55:32.001Z,98266.97
2023-01-05T19:58:11.337Z,98267.22
2023-01-05T20:00:39.622Z,98270.16
2023-01-05T20:03:08.123Z,98270.38
2023-01-05T20:05:38.474Z,98268.09
2023-01-05T20:08:10.450Z,98268.50
2023-01-05T20:10:40.654Z,98277.53
2023-01-05T20:13:10.435Z,98270.81
2023-01-05T20:15:38.649Z,98271.91
2023-01-05T20:18:07.832Z,98273.97
2023-01-05T20:20:36.113Z,98271.56
2023-01-05T20:23:04.450Z,98267.38
2023-01-05T20:25:32.749Z,98269.31
2023-01-05T20:28:01.047Z,98272.06
2023-01-05T20:30:30.890Z,98282.81
2023-01-05T20:32:59.191Z,98283.06
2023-01-05T20:35:27.515Z,98290.19
2023-01-05T20:37:56.127Z,98289.44
2023-01-05T20:40:24.494Z,98289.72
2023-01-05T20:42:52.758Z,98295.25
2023-01-05T20:45:21.072Z,98296.34
2023-01-05T20:47:50.688Z,98290.22
2023-01-05T20:50:19.141Z,98294.81
2023-01-05T20:52:47.515Z,98296.72
2023-01-05T20:55:18.047Z,98293.34
2023-01-05T20:57:47.245Z,98301.44
2023-01-05T21:00:16.861Z,98300.72
2023-01-05T21:02:47.492Z,98306.84
2023-01-05T21:05:17.657Z,98302.53
2023-01-05T21:07:46.652Z,98308.78
2023-01-05T21:10:15.220Z,98308.91
2023-01-05T21:12:43.756Z,98317.69
2023-01-05T21:15:12.472Z,98318.66
2023-01-05T21:17:40.793Z,98319.75
2023-01-05T21:20:09.890Z,98317.22
2023-01-05T21:22:39.501Z,98317.34
2023-01-05T21:25:08.474Z,98327.22
2023-01-05T21:27:37.484Z,98331.66
2023-01-05T21:30:07.090Z,98328.31
2023-01-05T21:32:35.556Z,98333.72
2023-01-05T21:35:04.695Z,98339.28
2023-01-05T21:37:33.110Z,98326.97
2023-01-05T21:40:03.272Z,98319.16
2023-01-05T21:42:45.249Z,98322.06
2023-01-05T21:45:14.354Z,98324.81
2023-01-05T21:47:42.708Z,98322.19
2023-01-05T21:50:33.073Z,98324.00
2023-01-05T21:53:18.785Z,98326.78
2023-01-05T21:56:05.905Z,98323.28
2023-01-05T21:58:34.544Z,98326.91
2023-01-05T22:01:03.819Z,98323.16
2023-01-05T22:03:32.152Z,98320.38
2023-01-05T22:06:00.446Z,98330.97
2023-01-05T22:08:28.811Z,98322.06
2023-01-05T22:11:00.587Z,98330.97
2023-01-05T22:13:28.955Z,98330.72
2023-01-05T22:15:57.463Z,98330.59
2023-01-05T22:18:26.793Z,98312.06
2023-01-05T22:20:59.437Z,98333.13
2023-01-05T22:23:28.511Z,98327.09
2023-01-05T22:26:04.035Z,98323.50
2023-01-05T22:28:32.720Z,98318.09
2023-01-05T22:31:07.092Z,98318.91
2023-01-05T22:33:37.492Z,98316.28
2023-01-05T22:36:07.187Z,98319.66
2023-01-05T22:38:37.824Z,98317.72
2023-01-05T22:41:11.025Z,98318.44
2023-01-05T22:43:41.183Z,98317.34
2023-01-05T22:46:12.960Z,98318.91
2023-01-05T22:48:43.640Z,98317.94
2023-01-05T22:51:17.414Z,98321.31
2023-01-05T22:53:46.375Z,98322.84
2023-01-05T22:56:18.264Z,98327.06
2023-01-05T22:58:47.415Z,98322.47
2023-01-05T23:01:18.773Z,98325.97
2023-01-05T23:03:47.158Z,98314.28
2023-01-05T23:06:15.725Z,98316.81
2023-01-05T23:08:45.173Z,98304.44
2023-01-05T23:11:17.900Z,98313.91
2023-01-05T23:13:47.075Z,98316.44
2023-01-05T23:16:16.418Z,98312.00
2023-01-05T23:18:45.271Z,98305.84
2023-01-05T23:21:15.722Z,98312.00
2023-01-05T23:23:44.790Z,98310.19
2023-01-05T23:26:15.280Z,98304.91
2023-01-05T23:28:45.653Z,98305.72
2023-01-05T23:31:16.226Z,98299.47
2023-01-05T23:33:46.049Z,98306.44
2023-01-05T23:36:16.727Z,98301.03
2023-01-05T23:38:45.552Z,98303.53
2023-01-05T23:41:15.770Z,98289.56
2023-01-05T23:43:46.906Z,98297.28
2023-01-05T23:46:17.498Z,98291.97
2023-01-05T23:48:45.887Z,98289.44
2023-01-05T23:51:16.468Z,98291.00
2023-01-05T23:53:47.144Z,98295.22
2023-01-05T23:56:17.199Z,98296.03
2023-01-05T23:58:46.979Z,98294.13
